sensor_id;sensor_type;location;lat;lon;timestamp;temperature;humidity
9901;DHT22;4989;48.772;9.154;2023-02-17T00:02:59;10.90;62.30
9901;DHT22;4989;48.772;9.154;2023-02-17T00:08:01;10.90;62.20
9901;DHT22;4989;48.772;9.154;2023-02-17T00:13:03;10.80;62.40
9901;DHT22;4989;48.772;9.154;2023-02-17T00:18:05;10.70;62.90
9901;DHT22;4989;48.772;9.154;2023-02-17T00:23:07;10.60;63.00
9901;DHT22;4989;48.772;9.154;2023-02-17T00:28:10;10.50;63.60
9901;DHT22;4989;48.772;9.154;2023-02-17T00:33:12;10.50;63.80
9901;DHT22;4989;48.772;9.154;2023-02-17T00:38:16;10.50;64.00
9901;DHT22;4989;48.772;9.154;2023-02-17T00:43:18;10.50;64.20
9901;DHT22;4989;48.772;9.154;2023-02-17T00:48:20;10.50;64.40
9901;DHT22;4989;48.772;9.154;2023-02-17T00:53:23;10.40;64.80
9901;DHT22;4989;48.772;9.154;2023-02-17T00:58:25;10.40;65.10
9901;DHT22;4989;48.772;9.154;2023-02-17T01:03:28;10.50;65.20
9901;DHT22;4989;48.772;9.154;2023-02-17T01:08:31;10.50;65.20
9901;DHT22;4989;48.772;9.154;2023-02-17T01:13:33;10.60;65.10
9901;DHT22;4989;48.772;9.154;2023-02-17T01:18:35;10.70;65.00
9901;DHT22;4989;48.772;9.154;2023-02-17T01:23:37;10.70;65.20
9901;DHT22;4989;48.772;9.154;2023-02-17T01:28:41;10.70;65.50
9901;DHT22;4989;48.772;9.154;2023-02-17T01:33:43;10.60;65.80
9901;DHT22;4989;48.772;9.154;2023-02-17T01:38:46;10.50;66.20
9901;DHT22;4989;48.772;9.154;2023-02-17T01:44:14;10.70;66.20
9901;DHT22;4989;48.772;9.154;2023-02-17T01:49:25;10.60;66.10
9901;DHT22;4989;48.772;9.154;2023-02-17T01:54:40;10.60;66.30
9901;DHT22;4989;48.772;9.154;2023-02-17T01:59:47;10.50;67.30
9901;DHT22;4989;48.772;9.154;2023-02-17T02:04:52;10.60;66.70
9901;DHT22;4989;48.772;9.154;2023-02-17T02:09:56;10.50;67.10
9901;DHT22;4989;48.772;9.154;2023-02-17T02:15:06;10.70;66.30
9901;DHT22;4989;48.772;9.154;2023-02-17T02:37:26;10.60;66.60
9901;DHT22;4989;48.772;9.154;2023-02-17T02:42:39;10.60;67.40
9901;DHT22;4989;48.772;9.154;2023-02-17T03:04:30;10.70;66.30
9901;DHT22;4989;48.772;9.154;2023-02-17T03:09:39;10.70;65.90
9901;DHT22;4989;48.772;9.154;2023-02-17T03:14:42;10.80;66.10
9901;DHT22;4989;48.772;9.154;2023-02-17T03:19:45;10.90;65.60
9901;DHT22;4989;48.772;9.154;2023-02-17T03:24:50;10.70;66.20
9901;DHT22;4989;48.772;9.154;2023-02-17T03:29:53;10.60;66.50
9901;DHT22;4989;48.772;9.154;2023-02-17T03:34:56;10.60;66.50
9901;DHT22;4989;48.772;9.154;2023-02-17T03:39:58;11.00;66.50
9901;DHT22;4989;48.772;9.154;2023-02-17T03:45:01;10.90;65.90
9901;DHT22;4989;48.772;9.154;2023-02-17T03:50:03;11.00;66.10
9901;DHT22;4989;48.772;9.154;2023-02-17T03:55:06;10.70;66.50
9901;DHT22;4989;48.772;9.154;2023-02-17T04:00:09;10.70;67.40
9901;DHT22;4989;48.772;9.154;2023-02-17T04:05:14;10.50;68.80
9901;DHT22;4989;48.772;9.154;2023-02-17T04:10:16;10.30;68.60
9901;DHT22;4989;48.772;9.154;2023-02-17T04:15:19;10.80;70.50
9901;DHT22;4989;48.772;9.154;2023-02-17T04:20:22;11.10;66.70
9901;DHT22;4989;48.772;9.154;2023-02-17T04:25:25;11.10;66.40
9901;DHT22;4989;48.772;9.154;2023-02-17T04:30:27;10.90;67.00
9901;DHT22;4989;48.772;9.154;2023-02-17T04:35:30;11.10;67.10
9901;DHT22;4989;48.772;9.154;2023-02-17T04:40:32;11.10;67.00
9901;DHT22;4989;48.772;9.154;2023-02-17T04:45:36;11.10;66.70
9901;DHT22;4989;48.772;9.154;2023-02-17T04:50:39;11.10;67.00
9901;DHT22;4989;48.772;9.154;2023-02-17T04:55:41;11.10;67.60
9901;DHT22;4989;48.772;9.154;2023-02-17T05:00:45;11.00;68.60
9901;DHT22;4989;48.772;9.154;2023-02-17T05:05:48;11.20;68.50
9901;DHT22;4989;48.772;9.154;2023-02-17T05:10:51;11.30;68.40
9901;DHT22;4989;48.772;9.154;2023-02-17T05:15:53;11.40;68.30
9901;DHT22;4989;48.772;9.154;2023-02-17T05:20:55;11.20;69.10
9901;DHT22;4989;48.772;9.154;2023-02-17T05:25:58;11.00;70.30
9901;DHT22;4989;48.772;9.154;2023-02-17T05:31:00;10.90;70.80
9901;DHT22;4989;48.772;9.154;2023-02-17T05:36:05;10.90;71.60
9901;DHT22;4989;48.772;9.154;2023-02-17T05:41:09;11.00;72.10
9901;DHT22;4989;48.772;9.154;2023-02-17T05:46:11;11.00;72.40
9901;DHT22;4989;48.772;9.154;2023-02-17T05:51:14;11.00;72.90
9901;DHT22;4989;48.772;9.154;2023-02-17T05:56:17;11.40;72.40
9901;DHT22;4989;48.772;9.154;2023-02-17T06:01:20;11.40;72.60
9901;DHT22;4989;48.772;9.154;2023-02-17T06:06:22;11.40;73.30
9901;DHT22;4989;48.772;9.154;2023-02-17T06:11:24;11.40;74.70
9901;DHT22;4989;48.772;9.154;2023-02-17T06:16:27;11.50;75.00
9901;DHT22;4989;48.772;9.154;2023-02-17T06:21:30;11.40;75.70
9901;DHT22;4989;48.772;9.154;2023-02-17T06:26:32;11.60;75.70
9901;DHT22;4989;48.772;9.154;2023-02-17T06:31:34;11.80;75.20
9901;DHT22;4989;48.772;9.154;2023-02-17T06:36:36;11.70;75.70
9901;DHT22;4989;48.772;9.154;2023-02-17T06:41:38;11.70;75.90
9901;DHT22;4989;48.772;9.154;2023-02-17T06:46:40;11.90;75.70
9901;DHT22;4989;48.772;9.154;2023-02-17T06:51:42;11.40;77.60
9901;DHT22;4989;48.772;9.154;2023-02-17T06:56:44;11.20;79.20
9901;DHT22;4989;48.772;9.154;2023-02-17T07:01:46;11.30;79.00
9901;DHT22;4989;48.772;9.154;2023-02-17T07:06:50;11.40;78.90
9901;DHT22;4989;48.772;9.154;2023-02-17T07:11:53;11.40;79.30
9901;DHT22;4989;48.772;9.154;2023-02-17T07:16:55;11.50;79.50
9901;DHT22;4989;48.772;9.154;2023-02-17T07:21:58;11.40;79.70
9901;DHT22;4989;48.772;9.154;2023-02-17T07:27:00;11.40;80.60
9901;DHT22;4989;48.772;9.154;2023-02-17T07:32:02;11.30;81.40
9901;DHT22;4989;48.772;9.154;2023-02-17T07:37:04;11.30;82.20
9901;DHT22;4989;48.772;9.154;2023-02-17T07:42:06;11.50;81.50
9901;DHT22;4989;48.772;9.154;2023-02-17T07:47:10;11.30;82.90
9901;DHT22;4989;48.772;9.154;2023-02-17T07:52:15;11.30;83.50
9901;DHT22;4989;48.772;9.154;2023-02-17T07:57:19;11.50;83.40
9901;DHT22;4989;48.772;9.154;2023-02-17T08:02:21;11.40;84.70
9901;DHT22;4989;48.772;9.154;2023-02-17T08:07:23;11.50;84.40
9901;DHT22;4989;48.772;9.154;2023-02-17T08:12:25;11.40;85.60
9901;DHT22;4989;48.772;9.154;2023-02-17T08:17:46;11.60;85.70
9901;DHT22;4989;48.772;9.154;2023-02-17T08:22:52;11.50;86.60
9901;DHT22;4989;48.772;9.154;2023-02-17T08:27:54;11.90;85.60
9901;DHT22;4989;48.772;9.154;2023-02-17T08:32:56;11.90;86.00
9901;DHT22;4989;48.772;9.154;2023-02-17T08:37:59;11.90;86.60
9901;DHT22;4989;48.772;9.154;2023-02-17T08:43:01;12.10;86.30
9901;DHT22;4989;48.772;9.154;2023-02-17T08:48:04;12.40;85.30
9901;DHT22;4989;48.772;9.154;2023-02-17T08:53:07;12.20;86.80
9901;DHT22;4989;48.772;9.154;2023-02-17T08:58:09;12.50;85.60
9901;DHT22;4989;48.772;9.154;2023-02-17T09:03:11;12.30;87.10
9901;DHT22;4989;48.772;9.154;2023-02-17T09:08:13;12.20;87.80
9901;DHT22;4989;48.772;9.154;2023-02-17T09:13:15;12.20;88.50
9901;DHT22;4989;48.772;9.154;2023-02-17T09:18:22;12.10;89.60
9901;DHT22;4989;48.772;9.154;2023-02-17T09:23:25;12.10;89.70
9901;DHT22;4989;48.772;9.154;2023-02-17T09:28:28;12.00;90.30
9901;DHT22;4989;48.772;9.154;2023-02-17T09:33:30;12.10;90.60
9901;DHT22;4989;48.772;9.154;2023-02-17T09:38:32;12.20;90.60
9901;DHT22;4989;48.772;9.154;2023-02-17T09:43:35;12.40;90.00
9901;DHT22;4989;48.772;9.154;2023-02-17T09:48:37;12.60;89.80
9901;DHT22;4989;48.772;9.154;2023-02-17T11:22:59;12.70;89.20
9901;DHT22;4989;48.772;9.154;2023-02-17T11:28:10;15.90;78.10
9901;DHT22;4989;48.772;9.154;2023-02-17T11:33:18;15.50;77.80
9901;DHT22;4989;48.772;9.154;2023-02-17T12:11:17;14.90;81.10
9901;DHT22;4989;48.772;9.154;2023-02-17T12:43:54;14.30;86.10
9901;DHT22;4989;48.772;9.154;2023-02-17T12:49:13;14.60;85.50
9901;DHT22;4989;48.772;9.154;2023-02-17T12:54:25;14.80;84.60
9901;DHT22;4989;48.772;9.154;2023-02-17T12:59:40;15.00;84.40
9901;DHT22;4989;48.772;9.154;2023-02-17T13:04:58;14.90;84.70
9901;DHT22;4989;48.772;9.154;2023-02-17T13:10:06;14.90;84.40
9901;DHT22;4989;48.772;9.154;2023-02-17T13:26:13;14.70;85.80
9901;DHT22;4989;48.772;9.154;2023-02-17T13:31:24;15.30;83.80
9901;DHT22;4989;48.772;9.154;2023-02-17T13:41:46;15.70;81.50
9901;DHT22;4989;48.772;9.154;2023-02-17T14:07:37;15.80;81.40
9901;DHT22;4989;48.772;9.154;2023-02-17T14:12:40;15.30;83.20
9901;DHT22;4989;48.772;9.154;2023-02-17T14:17:42;15.00;85.00
9901;DHT22;4989;48.772;9.154;2023-02-17T14:22:44;15.40;84.00
9901;DHT22;4989;48.772;9.154;2023-02-17T14:27:59;15.30;84.50
9901;DHT22;4989;48.772;9.154;2023-02-17T14:38:24;15.20;85.20
9901;DHT22;4989;48.772;9.154;2023-02-17T14:43:27;15.10;85.60
9901;DHT22;4989;48.772;9.154;2023-02-17T14:48:29;14.90;86.10
9901;DHT22;4989;48.772;9.154;2023-02-17T14:53:33;14.80;87.10
